メインページ
METAR-TAF:

METAR-TAF

空港 :

アスンシオン, パラグアイ

シルビオ・ペッティロッシ国際空港

緯度: 25-16S, 経度: 057-38W, 海抜: 101m

現時点の気象観測

当レポートは52分前の01:00(UTC)に作成
東/北東の風 9kt、北/北東からの間で変化する
気温 22°C
湿度 65%
気圧 1015 hPa
視程10km以上
1,500メートル以下は雲なし、積乱雲なし

METAR: SGAS 260100Z 07009KT 030V100 CAVOK 22/15 Q1015

時間: 21:52 (01:52 UTC)

予報

当レポートは3時間22分前の22:30(UTC)に作成
予報は26日の 00時(UTC)から 27日の 00時(UTC)まで有効
の風 8kt
視程10km以上
1,500メートル以下は雲なし、積乱雲なし
26日の 03時(UTC)から 26日の 07時(UTC)まで徐々に
視程: 8000m
26日の 12時(UTC)から 26日の 15時(UTC)まで徐々に
北/北東の風 12kt、最大22ktの突風を伴う
視程10km以上
1,500メートル以下は雲なし、積乱雲なし

TAF: SGAS 252230Z 2600/2700 08008KT CAVOK TX29/2619Z TN20/2610Z BECMG 2603/2607 8000 NSC BECMG 2612/2615 03012G22KT CAVOK

4,000以上の空港の気象観測と天気予報(METAR報とTAF報)

利用可能な観測所は地図上に黄色い丸と赤い丸で示す。

丸の上にカーソルを重ねると観測所名を参照できる。

次にクリックすると気象観測と天気予報を参照できる。

マップの切り替え:黒色「×」印の緑ボタンをクリックして拡大、「-」印の緑ボタンをクリックして縮小、緑色の三角印をクリックして隣りの地図に切り替え


METAR-TAF: